Time;durP1;ratioP1;P1;durP2;ratioP2;P2;SDS_P1;SDS_P2;PMS_P1;PMS_P2;Temp;Humidity;BMP_temperature;BMP_pressure;BME280_temperature;BME280_humidity;BME280_pressure;Samples;Min_cycle;Max_cycle;Signal;HPM_P1;HPM_P2
2021/07/30 00:00:07;;;;;;;2.88;1.90;;;;;;;15.87;61.94;100297.78;3574092;40;20514;-46
2021/07/30 00:02:34;;;;;;;4.00;2.13;;;;;;;15.72;62.04;100299.53;3573224;40;20085;-41
2021/07/30 00:05:02;;;;;;;3.22;1.95;;;;;;;15.77;62.02;100300.38;3574044;40;20068;-42
2021/07/30 00:07:29;;;;;;;2.03;1.60;;;;;;;15.58;62.70;100301.22;3573441;40;20123;-45
2021/07/30 00:09:56;;;;;;;4.10;2.05;;;;;;;15.39;63.94;100300.38;3573888;40;20053;-42
2021/07/30 00:12:23;;;;;;;4.93;2.10;;;;;;;15.59;63.65;100302.09;3573601;40;20331;-42
2021/07/30 00:14:50;;;;;;;5.63;1.70;;;;;;;15.47;63.60;100301.22;3573964;40;20045;-42
2021/07/30 00:17:17;;;;;;;6.50;2.05;;;;;;;15.67;63.71;100297.81;3573348;40;20351;-42
2021/07/30 00:19:44;;;;;;;5.25;2.15;;;;;;;15.68;62.77;100296.94;3573571;40;20455;-42
2021/07/30 00:22:11;;;;;;;7.10;2.35;;;;;;;15.14;64.89;100290.91;3573768;40;20085;-43
2021/07/30 00:24:38;;;;;;;3.80;1.90;;;;;;;15.28;64.68;100297.78;3573450;40;20064;-42
2021/07/30 00:27:05;;;;;;;7.10;1.90;;;;;;;15.61;63.53;100292.59;3573877;40;20061;-42
2021/07/30 00:29:32;;;;;;;5.65;2.20;;;;;;;15.57;63.15;100294.31;3573626;40;20061;-42
2021/07/30 00:31:59;;;;;;;2.15;1.90;;;;;;;15.55;63.49;100288.31;3573617;40;20323;-42
2021/07/30 00:34:26;;;;;;;6.38;2.40;;;;;;;15.61;63.32;100280.56;3573302;40;20108;-41
2021/07/30 00:36:53;;;;;;;5.63;2.30;;;;;;;15.43;63.42;100280.59;3573522;40;20045;-42
2021/07/30 00:39:20;;;;;;;3.85;2.03;;;;;;;15.23;64.41;100278.88;3573232;40;20095;-45
2021/07/30 00:41:47;;;;;;;4.20;2.20;;;;;;;15.52;63.49;100280.56;3573680;40;20048;-41
2021/07/30 00:44:14;;;;;;;3.42;2.00;;;;;;;15.45;63.58;100277.16;3573247;40;20430;-43
2021/07/30 00:46:41;;;;;;;4.47;2.75;;;;;;;15.53;63.45;100283.19;3573566;40;20351;-41
2021/07/30 00:49:08;;;;;;;6.70;2.63;;;;;;;15.43;63.59;100278.00;3573899;40;20138;-42
2021/07/30 00:51:36;;;;;;;7.50;2.30;;;;;;;15.43;64.35;100281.44;3571890;40;20093;-42
2021/07/30 00:54:03;;;;;;;4.90;2.15;;;;;;;15.15;65.64;100274.56;3573540;40;20092;-44
2021/07/30 00:56:30;;;;;;;9.02;2.30;;;;;;;15.08;65.83;100272.88;3573300;40;20080;-42
2021/07/30 00:58:59;;;;;;;4.45;2.17;;;;;;;15.29;64.74;100273.69;3573354;40;20423;-43
2021/07/30 01:01:26;;;;;;;4.22;2.28;;;;;;;15.18;65.13;100272.84;3573465;40;20096;-42
2021/07/30 01:03:53;;;;;;;3.67;2.42;;;;;;;15.28;65.35;100269.41;3573249;40;20060;-42
2021/07/30 01:06:20;;;;;;;6.18;2.53;;;;;;;15.33;64.59;100268.56;3573257;40;20081;-42
2021/07/30 01:08:48;;;;;;;10.48;2.20;;;;;;;15.22;65.81;100276.31;3573381;40;20044;-42
2021/07/30 01:11:15;;;;;;;2.92;2.38;;;;;;;15.19;65.11;100278.88;3572937;40;20081;-43
2021/07/30 01:13:41;;;;;;;4.35;2.45;;;;;;;15.27;64.70;100277.16;3569112;40;20085;-44
2021/07/30 01:16:08;;;;;;;4.90;2.20;;;;;;;15.14;65.18;100271.13;3573828;40;20048;-45
2021/07/30 01:18:36;;;;;;;4.53;2.80;;;;;;;15.25;64.29;100269.44;3569585;40;20068;-42
2021/07/30 01:21:26;;;;;;;6.25;2.45;;;;;;;15.05;65.59;100265.97;3573473;40;20085;-42
2021/07/30 01:23:53;;;;;;;4.82;2.38;;;;;;;15.09;65.21;100262.53;3573469;40;20064;-44
2021/07/30 01:26:20;;;;;;;4.57;2.22;;;;;;;15.16;64.55;100263.38;3573121;40;20099;-44
2021/07/30 01:28:48;;;;;;;3.90;2.20;;;;;;;15.01;65.22;100259.94;3573225;40;20085;-43
2021/07/30 01:31:15;;;;;;;4.30;2.70;;;;;;;15.09;64.89;100262.53;3573205;40;20055;-46
2021/07/30 01:33:42;;;;;;;5.10;2.47;;;;;;;15.11;64.82;100272.84;3565996;40;20053;-46
2021/07/30 01:36:08;;;;;;;6.88;2.60;;;;;;;15.20;64.15;100268.53;3573146;40;20089;-42
2021/07/30 01:38:35;;;;;;;7.32;2.42;;;;;;;14.87;65.37;100266.81;3569341;40;20326;-42
2021/07/30 01:41:09;;;;;;;6.45;2.25;;;;;;;15.02;65.06;100264.28;3573528;40;20088;-42
2021/07/30 01:43:42;;;;;;;3.47;2.30;;;;;;;15.05;65.04;100259.97;3572708;40;20077;-43
2021/07/30 01:46:10;;;;;;;5.45;2.78;;;;;;;15.14;64.67;100262.53;3573585;40;20061;-43
2021/07/30 01:48:37;;;;;;;3.70;2.15;;;;;;;14.98;65.62;100265.13;3572750;40;20438;-44
2021/07/30 01:51:05;;;;;;;6.50;2.55;;;;;;;15.06;65.44;100266.81;3573252;40;20045;-43
2021/07/30 01:53:32;;;;;;;4.50;2.20;;;;;;;14.68;66.78;100260.78;3573153;40;20063;-44
2021/07/30 01:56:03;;;;;;;4.70;2.28;;;;;;;14.85;66.33;100259.94;3573553;40;20049;-42
2021/07/30 01:58:33;;;;;;;9.25;2.50;;;;;;;14.70;67.32;100260.78;3572688;40;20093;-42
2021/07/30 02:01:01;;;;;;;4.72;2.40;;;;;;;14.75;67.43;100266.81;3572652;40;20351;-43
2021/07/30 02:03:28;;;;;;;6.32;2.47;;;;;;;14.72;66.96;100266.78;3572681;40;20055;-43
2021/07/30 02:05:55;;;;;;;4.50;2.30;;;;;;;14.84;66.98;100271.13;3573221;40;20064;-44
2021/07/30 02:08:22;;;;;;;3.00;2.38;;;;;;;14.67;67.46;100269.38;3572922;40;20491;-45
2021/07/30 02:10:49;;;;;;;6.05;2.55;;;;;;;14.63;67.62;100272.78;3573427;40;20060;-45
2021/07/30 02:16:01;;;;;;;8.10;3.25;;;;;;;14.78;67.30;100272.81;3573039;40;20051;-41
2021/07/30 02:18:28;;;;;;;7.93;2.30;;;;;;;14.69;67.93;100271.94;3572374;40;20053;-42
2021/07/30 02:20:55;;;;;;;7.40;3.15;;;;;;;14.65;68.38;100265.06;3572511;40;20355;-45
2021/07/30 02:23:22;;;;;;;4.05;2.58;;;;;;;14.65;68.37;100267.63;3572225;40;20088;-42
2021/07/30 02:25:49;;;;;;;5.30;3.13;;;;;;;14.64;68.78;100264.19;3573056;40;20061;-42
2021/07/30 02:28:16;;;;;;;3.58;3.00;;;;;;;14.54;69.10;100266.75;3572460;40;20059;-44
2021/07/30 02:30:43;;;;;;;5.60;2.90;;;;;;;14.56;68.42;100265.03;3573014;40;20037;-42
2021/07/30 02:33:10;;;;;;;5.82;3.05;;;;;;;14.56;69.16;100263.34;3572757;40;20077;-41
2021/07/30 02:35:37;;;;;;;5.75;3.00;;;;;;;14.62;69.26;100265.06;3572629;40;20045;-43
2021/07/30 02:38:04;;;;;;;4.57;2.88;;;;;;;14.42;69.87;100275.25;3572935;40;20085;-44
2021/07/30 02:40:31;;;;;;;5.15;3.10;;;;;;;14.63;69.04;100266.78;3572927;40;20085;-44
2021/07/30 02:42:58;;;;;;;7.80;3.70;;;;;;;14.55;69.88;100268.47;3573225;40;20157;-43
2021/07/30 02:45:25;;;;;;;5.18;3.03;;;;;;;14.64;69.21;100266.78;3572765;40;20142;-45
2021/07/30 02:47:52;;;;;;;4.60;2.95;;;;;;;14.42;70.40;100265.84;3572679;40;20135;-42
2021/07/30 02:50:19;;;;;;;6.00;3.72;;;;;;;14.51;70.52;100270.16;3572109;40;20462;-42
2021/07/30 02:52:46;;;;;;;4.95;2.95;;;;;;;14.46;70.81;100270.13;3572427;40;20057;-43
2021/07/30 02:55:13;;;;;;;7.40;3.28;;;;;;;14.44;70.50;100268.41;3573160;40;20384;-42
2021/07/30 02:57:40;;;;;;;5.63;3.10;;;;;;;14.48;70.81;100273.63;3572682;40;20432;-42
2021/07/30 03:00:07;;;;;;;5.20;2.83;;;;;;;14.48;70.21;100267.59;3572931;40;20112;-45
2021/07/30 03:02:34;;;;;;;5.47;3.22;;;;;;;14.44;71.13;100268.41;3572048;40;20089;-45
2021/07/30 03:05:02;;;;;;;4.82;3.25;;;;;;;14.46;71.44;100272.69;3573128;40;20135;-43
2021/07/30 03:07:29;;;;;;;7.00;3.67;;;;;;;14.44;71.39;100276.13;3572476;40;20709;-44
2021/07/30 03:09:56;;;;;;;6.38;3.60;;;;;;;14.43;71.05;100275.28;3573060;40;20112;-44
2021/07/30 03:12:23;;;;;;;3.60;3.10;;;;;;;14.44;71.59;100271.00;3572752;40;20084;-43
2021/07/30 03:14:50;;;;;;;6.20;3.30;;;;;;;14.37;71.74;100269.22;3573087;40;20327;-41
2021/07/30 03:17:17;;;;;;;6.10;3.30;;;;;;;14.42;71.49;100276.16;3569142;40;20132;-43
2021/07/30 03:19:44;;;;;;;6.72;3.30;;;;;;;14.34;72.32;100269.25;3573199;40;20502;-43
2021/07/30 03:22:11;;;;;;;6.75;3.42;;;;;;;14.40;72.49;100272.69;3573011;40;20350;-43
2021/07/30 03:24:38;;;;;;;5.70;3.25;;;;;;;14.33;71.82;100265.81;3572435;40;20074;-42
2021/07/30 03:27:08;;;;;;;5.25;3.15;;;;;;;14.28;72.24;100264.91;3572828;40;20088;-44
2021/07/30 03:29:35;;;;;;;4.30;3.08;;;;;;;14.34;72.17;100264.94;3571842;40;20073;-45
2021/07/30 03:32:03;;;;;;;6.68;3.10;;;;;;;14.35;72.13;100270.97;3572282;40;20450;-43
2021/07/30 03:34:32;;;;;;;8.88;3.70;;;;;;;14.18;73.17;100266.59;3569046;40;20695;-42
2021/07/30 03:37:00;;;;;;;4.70;3.28;;;;;;;14.33;72.59;100264.91;3565601;40;20085;-44
2021/07/30 03:39:28;;;;;;;5.88;2.97;;;;;;;14.14;73.30;100258.84;3571652;40;20043;-44
2021/07/30 03:41:55;;;;;;;3.85;3.42;;;;;;;14.30;73.21;100265.78;3562682;40;20774;-42
2021/07/30 03:44:22;;;;;;;6.53;3.58;;;;;;;14.29;73.96;100266.66;3568482;40;20055;-43
2021/07/30 03:46:49;;;;;;;7.32;3.53;;;;;;;14.32;72.85;100266.63;3568526;40;20044;-50
2021/07/30 03:49:16;;;;;;;6.95;3.30;;;;;;;14.32;72.95;100271.78;3573447;40;20145;-43
2021/07/30 03:51:43;;;;;;;6.15;3.20;;;;;;;14.33;73.24;100267.50;3570481;40;20292;-45
2021/07/30 03:54:10;;;;;;;7.07;3.20;;;;;;;14.41;72.58;100271.81;3569565;40;20088;-44
2021/07/30 03:56:41;;;;;;;6.40;3.25;;;;;;;14.37;72.61;100267.50;3564400;40;20044;-41
2021/07/30 03:59:09;;;;;;;5.25;3.58;;;;;;;14.42;73.12;100276.16;3573829;40;20120;-42
2021/07/30 04:01:36;;;;;;;6.55;3.35;;;;;;;14.47;73.29;100277.03;3572728;40;20088;-43
2021/07/30 04:04:04;;;;;;;6.38;3.35;;;;;;;14.48;73.01;100273.63;3573566;40;20142;-44
2021/07/30 04:06:31;;;;;;;9.35;4.28;;;;;;;14.49;73.11;100274.47;3573209;40;20057;-43
2021/07/30 04:08:58;;;;;;;9.48;3.85;;;;;;;14.56;73.00;100280.47;3573732;40;20363;-43
2021/07/30 04:11:25;;;;;;;6.70;3.40;;;;;;;14.56;72.88;100275.34;3573603;40;20049;-43
2021/07/30 04:13:52;;;;;;;9.68;4.15;;;;;;;14.49;73.21;100277.03;3573908;40;20607;-43
2021/07/30 04:16:19;;;;;;;9.40;3.80;;;;;;;14.57;73.26;100277.06;3573593;40;20084;-44
2021/07/30 04:18:46;;;;;;;5.07;3.67;;;;;;;14.49;73.86;100272.75;3573733;40;20037;-44
2021/07/30 04:21:13;;;;;;;5.38;4.03;;;;;;;14.49;73.72;100277.03;3573361;40;20474;-43
2021/07/30 04:23:40;;;;;;;7.95;3.55;;;;;;;14.37;74.07;100271.81;3573644;40;20044;-44
2021/07/30 04:26:07;;;;;;;5.55;3.83;;;;;;;14.47;73.35;100271.88;3574032;40;20081;-43
2021/07/30 04:28:35;;;;;;;5.78;3.70;;;;;;;14.44;74.86;100273.56;3573297;40;20108;-43
2021/07/30 04:31:04;;;;;;;5.05;3.47;;;;;;;14.38;74.55;100268.41;3573808;40;20057;-44
2021/07/30 04:33:33;;;;;;;6.00;3.60;;;;;;;14.29;75.38;100271.81;3573160;40;20053;-44
2021/07/30 04:36:04;;;;;;;6.63;3.75;;;;;;;14.34;74.95;100272.69;3593297;23;20046;-55
2021/07/30 04:38:33;;;;;;;6.53;3.42;;;;;;;14.42;75.44;100281.31;3555375;40;20474;-45
2021/07/30 04:41:04;;;;;;;11.32;3.65;;;;;;;14.45;74.78;100275.28;3546474;40;20082;-49
2021/07/30 04:43:31;;;;;;;6.50;3.92;;;;;;;14.55;74.77;100271.03;3555084;40;20093;-48
2021/07/30 04:45:58;;;;;;;7.38;3.88;;;;;;;14.64;74.01;100274.50;3554175;40;20047;-48
2021/07/30 04:48:25;;;;;;;9.05;4.68;;;;;;;14.56;74.98;100272.75;3554825;40;20042;-49
2021/07/30 04:50:53;;;;;;;7.15;3.65;;;;;;;14.65;74.19;100281.41;3555057;40;20358;-49
2021/07/30 04:53:20;;;;;;;8.02;3.60;;;;;;;14.77;73.48;100283.97;3549532;40;20089;-50
2021/07/30 04:55:47;;;;;;;5.70;3.78;;;;;;;14.81;73.55;100286.56;3554331;40;20046;-51
2021/07/30 04:58:17;;;;;;;9.82;3.78;;;;;;;14.93;73.56;100286.56;3554986;40;20489;-48
2021/07/30 05:01:00;;;;;;;6.50;3.55;;;;;;;14.97;73.16;100288.31;3554456;40;20386;-48
2021/07/30 05:03:40;;;;;;;8.88;4.00;;;;;;;14.98;73.47;100288.31;3554847;40;20049;-47
2021/07/30 05:06:29;;;;;;;6.75;4.28;;;;;;;15.16;73.21;100284.03;3553496;40;20038;-46
2021/07/30 05:08:58;;;;;;;7.05;3.78;;;;;;;15.25;72.48;100290.06;3554661;40;20041;-45
2021/07/30 05:11:44;;;;;;;8.55;4.18;;;;;;;15.27;72.96;100284.91;3554150;40;20053;-49
2021/07/30 05:14:14;;;;;;;5.28;3.20;;;;;;;15.44;71.60;100284.91;3550873;40;20063;-48
2021/07/30 05:16:44;;;;;;;6.07;3.65;;;;;;;15.50;72.03;100278.00;3547610;40;20390;-48
2021/07/30 05:19:17;;;;;;;6.07;3.65;;;;;;;15.49;72.15;100283.19;3554595;40;20058;-47
2021/07/30 05:21:44;;;;;;;11.02;4.22;;;;;;;15.50;72.29;100282.31;3547823;40;20052;-48
2021/07/30 05:24:19;;;;;;;4.15;3.40;;;;;;;15.72;72.48;100273.72;3554464;40;20320;-45
2021/07/30 05:26:51;;;;;;;6.18;3.30;;;;;;;15.70;70.59;100283.16;3547819;40;20050;-49
2021/07/30 05:29:21;;;;;;;9.48;4.68;;;;;;;15.83;72.10;100271.09;3550694;40;20061;-47
2021/07/30 05:31:58;;;;;;;6.45;3.45;;;;;;;15.87;70.75;100271.94;3554853;40;20106;-45
2021/07/30 05:34:30;;;;;;;8.85;3.95;;;;;;;15.99;70.25;100279.66;3554634;40;20042;-46
2021/07/30 05:37:05;;;;;;;6.55;3.67;;;;;;;16.15;70.99;100280.47;3554665;40;20058;-46
2021/07/30 05:39:44;;;;;;;11.27;4.85;;;;;;;16.25;71.27;100279.56;3554332;40;20360;-45
2021/07/30 05:42:14;;;;;;;6.40;4.22;;;;;;;16.24;69.85;100283.00;3554563;40;20281;-45
2021/07/30 05:44:51;;;;;;;4.30;3.65;;;;;;;16.40;68.81;100287.22;3546952;40;20073;-47
2021/07/30 05:47:25;;;;;;;4.47;3.63;;;;;;;16.45;68.18;100284.63;3554196;40;20153;-47
2021/07/30 05:50:00;;;;;;;5.33;4.00;;;;;;;16.50;67.82;100278.59;3554426;40;20060;-47
2021/07/30 05:52:38;;;;;;;5.55;3.78;;;;;;;16.67;69.55;100282.78;3554539;40;20108;-46
2021/07/30 05:55:16;;;;;;;4.05;3.20;;;;;;;16.73;67.54;100286.25;3554562;40;20038;-45
2021/07/30 05:57:51;;;;;;;5.88;3.30;;;;;;;16.75;67.71;100284.50;3553533;40;20050;-47
2021/07/30 06:00:23;;;;;;;6.40;4.03;;;;;;;16.79;67.31;100283.63;3553804;40;20082;-47
2021/07/30 06:02:58;;;;;;;9.63;3.92;;;;;;;16.98;67.56;100286.09;3554433;40;20069;-45
2021/07/30 06:05:26;;;;;;;6.57;3.67;;;;;;;17.06;67.05;100284.31;3554017;40;20389;-47
2021/07/30 06:07:59;;;;;;;9.18;3.40;;;;;;;17.21;67.28;100280.75;3554122;40;20287;-46
2021/07/30 06:10:34;;;;;;;7.13;3.58;;;;;;;17.36;65.71;100278.00;3554408;40;20348;-47
2021/07/30 06:13:04;;;;;;;6.57;3.55;;;;;;;17.34;65.43;100277.19;3554105;40;20050;-49
2021/07/30 06:15:34;;;;;;;5.53;3.55;;;;;;;17.43;65.04;100278.84;3554212;40;20053;-48
2021/07/30 06:18:06;;;;;;;5.32;3.30;;;;;;;17.59;65.38;100282.97;3553979;40;20046;-50
2021/07/30 06:20:36;;;;;;;3.88;3.45;;;;;;;17.80;65.20;100282.81;3553474;40;20144;-47
2021/07/30 06:23:04;;;;;;;9.80;3.67;;;;;;;17.98;65.90;100280.88;3554063;40;20406;-48
2021/07/30 06:25:31;;;;;;;6.70;3.67;;;;;;;17.92;63.58;100281.81;3553865;40;20496;-46
2021/07/30 06:27:58;;;;;;;7.28;3.67;;;;;;;18.00;64.88;100285.19;3554122;40;20070;-47
2021/07/30 06:30:25;;;;;;;4.65;3.53;;;;;;;18.28;64.14;100277.06;3554014;40;20106;-48
2021/07/30 06:32:52;;;;;;;4.53;3.20;;;;;;;18.35;63.65;100275.25;3553858;40;20089;-46
2021/07/30 06:35:20;;;;;;;9.00;3.17;;;;;;;18.36;62.44;100280.44;3553863;40;20073;-45
2021/07/30 06:37:47;;;;;;;6.63;3.20;;;;;;;18.50;63.30;100268.13;3555298;40;20061;-45
2021/07/30 06:40:14;;;;;;;6.72;3.40;;;;;;;18.46;61.51;100278.56;3554735;40;20086;-48
2021/07/30 06:42:41;;;;;;;6.20;3.20;;;;;;;18.53;61.33;100277.59;3545631;40;20070;-47
2021/07/30 06:45:08;;;;;;;5.50;2.92;;;;;;;18.79;63.01;100272.94;3553720;40;20052;-49
2021/07/30 06:47:36;;;;;;;7.28;3.20;;;;;;;19.01;62.39;100270.03;3554116;40;20461;-51
2021/07/30 06:50:05;;;;;;;6.45;3.55;;;;;;;18.99;60.85;100272.63;3554808;40;20352;-54
2021/07/30 06:52:32;;;;;;;6.88;3.17;;;;;;;19.18;61.22;100277.53;3554157;40;20086;-46
2021/07/30 06:55:00;;;;;;;6.65;3.20;;;;;;;19.39;58.71;100273.72;3553921;40;20387;-47
2021/07/30 06:57:30;;;;;;;3.78;2.92;;;;;;;19.43;59.61;100278.84;3553573;40;20065;-48
2021/07/30 07:00:09;;;;;;;4.97;3.03;;;;;;;19.25;58.46;100280.00;3553692;40;20050;-47
2021/07/30 07:02:39;;;;;;;9.25;3.53;;;;;;;19.42;58.62;100276.28;3553055;40;20049;-48
2021/07/30 07:05:08;;;;;;;5.82;3.20;;;;;;;19.58;58.14;100269.91;3550847;40;20046;-47
2021/07/30 07:07:35;;;;;;;7.68;3.15;;;;;;;19.54;57.71;100276.91;3549848;40;20344;-49
2021/07/30 07:10:03;;;;;;;6.82;2.95;;;;;;;19.76;57.33;100260.97;3550331;40;20058;-47
2021/07/30 07:12:30;;;;;;;6.38;3.40;;;;;;;20.02;56.45;100269.13;3546412;40;20093;-49
2021/07/30 07:14:57;;;;;;;6.93;3.33;;;;;;;20.37;55.14;100279.69;3545586;40;20042;-48
2021/07/30 07:17:24;;;;;;;5.30;3.15;;;;;;;20.30;55.08;100266.81;3547673;40;20094;-47
2021/07/30 07:19:51;;;;;;;7.05;3.45;;;;;;;21.05;54.28;100266.88;3554477;40;20458;-48
2021/07/30 07:22:18;;;;;;;10.43;3.15;;;;;;;20.87;53.22;100278.59;3554444;40;20093;-51
2021/07/30 07:24:45;;;;;;;6.95;3.80;;;;;;;20.61;53.48;100279.16;3554847;40;20081;-48
2021/07/30 07:27:12;;;;;;;7.53;3.13;;;;;;;20.94;53.19;100269.75;3554870;40;20320;-47
2021/07/30 07:29:39;;;;;;;7.13;2.90;;;;;;;21.23;51.04;100271.66;3554402;40;20140;-47
2021/07/30 07:32:06;;;;;;;7.53;3.17;;;;;;;21.79;50.60;100268.50;3554543;40;20054;-47
2021/07/30 07:34:33;;;;;;;7.97;3.03;;;;;;;21.59;49.32;100267.28;3519488;40;1431720;-47
2021/07/30 07:37:00;;;;;;;5.88;3.00;;;;;;;21.67;49.43;100274.03;3555152;40;20046;-48
2021/07/30 07:39:27;;;;;;;7.95;3.53;;;;;;;21.47;49.99;100266.72;3555258;40;20101;-48
2021/07/30 07:41:54;;;;;;;12.80;3.67;;;;;;;22.22;50.40;100262.09;3555052;40;20098;-46
2021/07/30 07:44:22;;;;;;;11.60;3.55;;;;;;;22.71;48.73;100260.63;3555070;40;20050;-45
2021/07/30 07:46:49;;;;;;;8.75;3.40;;;;;;;22.07;48.16;100263.34;3555149;40;20042;-45
2021/07/30 07:49:17;;;;;;;8.05;3.58;;;;;;;21.45;48.87;100261.56;3554889;40;20440;-47
2021/07/30 07:51:44;;;;;;;8.57;3.38;;;;;;;21.13;48.94;100259.75;3548071;40;20081;-45
2021/07/30 07:54:31;;;;;;;8.68;3.67;;;;;;;21.34;48.26;100274.00;3554899;40;20054;-49
2021/07/30 07:57:01;;;;;;;8.50;3.83;;;;;;;21.03;49.63;100263.44;3554902;40;20082;-48
2021/07/30 07:59:28;;;;;;;9.93;3.65;;;;;;;21.31;49.25;100263.69;3555002;40;20073;-47
2021/07/30 08:01:56;;;;;;;8.35;3.85;;;;;;;21.46;49.73;100252.84;3554624;40;20105;-47
2021/07/30 08:04:23;;;;;;;9.00;3.40;;;;;;;21.33;49.05;100251.47;3554702;40;20086;-49
2021/07/30 08:06:50;;;;;;;6.95;3.20;;;;;;;21.19;48.71;100253.53;3555112;40;20082;-47
2021/07/30 08:09:17;;;;;;;7.40;3.25;;;;;;;21.44;48.61;100248.56;3554476;40;20064;-47
2021/07/30 08:11:44;;;;;;;6.30;3.63;;;;;;;21.31;46.53;100235.03;3554719;40;20078;-47
2021/07/30 08:14:11;;;;;;;5.65;3.58;;;;;;;21.53;47.11;100248.31;3554897;40;20057;-50
2021/07/30 08:16:38;;;;;;;4.70;2.90;;;;;;;21.77;47.98;100242.47;3554859;40;20082;-47
2021/07/30 08:19:05;;;;;;;10.38;3.55;;;;;;;21.98;46.38;100247.97;3554314;40;20054;-47
2021/07/30 08:21:32;;;;;;;7.22;3.10;;;;;;;21.58;47.34;100244.72;3555154;40;20419;-46
2021/07/30 08:23:59;;;;;;;9.57;4.22;;;;;;;21.51;46.09;100240.56;3555152;40;20054;-47
2021/07/30 08:26:26;;;;;;;7.70;3.10;;;;;;;21.93;45.14;100242.03;3554510;40;20063;-47
2021/07/30 08:28:53;;;;;;;6.82;3.45;;;;;;;22.07;44.96;100240.75;3554569;40;20059;-50
2021/07/30 08:31:26;;;;;;;6.90;4.07;;;;;;;22.19;45.55;100249.16;3553977;40;20392;-48
2021/07/30 08:33:54;;;;;;;8.23;3.42;;;;;;;22.39;46.98;100246.78;3554971;40;20076;-46
2021/07/30 08:36:21;;;;;;;5.63;3.08;;;;;;;22.38;45.17;100242.47;3554599;40;20046;-46
2021/07/30 08:38:48;;;;;;;6.15;3.25;;;;;;;22.34;43.52;100222.59;3551275;40;20339;-46
2021/07/30 08:41:22;;;;;;;6.07;2.90;;;;;;;22.71;43.80;100237.97;3553877;40;20306;-48
2021/07/30 08:43:53;;;;;;;4.32;3.13;;;;;;;23.24;44.44;100240.59;3548005;40;20065;-46
2021/07/30 08:46:24;;;;;;;5.05;3.10;;;;;;;22.75;41.57;100234.38;3554419;40;20419;-49
2021/07/30 08:48:55;;;;;;;4.28;2.63;;;;;;;23.07;42.20;100238.59;3554702;40;20344;-49
2021/07/30 08:51:32;;;;;;;7.60;3.05;;;;;;;22.79;42.73;100230.75;3554491;40;20057;-46
2021/07/30 08:54:06;;;;;;;6.53;3.10;;;;;;;23.11;42.40;100227.13;3554702;40;20435;-50
2021/07/30 08:56:47;;;;;;;3.65;2.55;;;;;;;23.61;42.59;100232.34;3553754;40;20433;-47
2021/07/30 08:59:14;;;;;;;6.40;3.00;;;;;;;23.73;42.48;100241.56;3554354;40;20089;-49
2021/07/30 09:01:41;;;;;;;4.80;3.08;;;;;;;23.16;42.63;100234.81;3554199;40;20074;-47
2021/07/30 09:04:32;;;;;;;5.68;3.10;;;;;;;23.31;42.43;100225.59;3554667;40;20056;-45
2021/07/30 09:07:02;;;;;;;6.10;3.22;;;;;;;24.35;43.85;100245.34;3554570;40;20093;-50
2021/07/30 09:09:34;;;;;;;8.45;2.85;;;;;;;23.82;40.09;100228.16;3554434;40;20060;-46
2021/07/30 09:12:04;;;;;;;6.68;2.75;;;;;;;23.20;41.91;100227.69;3555356;40;20308;-45
2021/07/30 09:14:37;;;;;;;5.30;2.80;;;;;;;22.86;42.49;100236.63;3552983;40;20582;-48
2021/07/30 09:17:12;;;;;;;9.45;3.08;;;;;;;22.71;42.12;100239.72;3554028;40;20045;-45
2021/07/30 09:20:00;;;;;;;6.63;2.80;;;;;;;22.85;42.63;100224.47;3554449;40;20049;-45
2021/07/30 09:22:27;;;;;;;5.47;2.65;;;;;;;23.21;40.66;100222.44;3554541;40;20069;-46
2021/07/30 09:24:58;;;;;;;7.80;3.15;;;;;;;23.56;41.34;100217.75;3554718;40;20135;-46
2021/07/30 09:27:34;;;;;;;7.30;2.30;;;;;;;24.25;40.44;100220.47;3554447;40;20087;-45
2021/07/30 09:30:14;;;;;;;7.40;3.13;;;;;;;24.54;41.65;100222.84;3554201;40;20053;-45
2021/07/30 09:32:42;;;;;;;8.40;3.08;;;;;;;24.37;40.44;100218.25;3554259;40;20058;-46
2021/07/30 09:35:09;;;;;;;7.65;2.78;;;;;;;24.24;38.86;100224.00;3554158;40;20407;-46
2021/07/30 09:37:36;;;;;;;8.23;2.45;;;;;;;24.01;39.74;100212.63;3554062;40;20448;-48
2021/07/30 09:40:04;;;;;;;4.82;2.20;;;;;;;24.50;39.46;100209.94;3554188;40;20054;-45
2021/07/30 09:42:33;;;;;;;7.50;3.17;;;;;;;24.80;39.76;100211.31;3554928;40;20053;-47
2021/07/30 09:45:05;;;;;;;4.55;2.63;;;;;;;25.00;39.61;100205.25;3554341;40;20046;-45
2021/07/30 09:47:45;;;;;;;6.05;2.83;;;;;;;25.33;38.78;100221.38;3555063;40;20093;-48
2021/07/30 09:50:12;;;;;;;7.15;2.58;;;;;;;25.13;37.08;100206.47;3554758;40;20086;-45
2021/07/30 09:52:41;;;;;;;6.55;2.47;;;;;;;24.96;38.10;100221.16;3555383;40;20034;-46
2021/07/30 09:55:22;;;;;;;5.50;2.40;;;;;;;24.84;37.88;100210.28;3554903;40;20368;-46
2021/07/30 09:57:51;;;;;;;5.72;1.92;;;;;;;24.96;37.90;100211.53;3555135;40;20077;-48
2021/07/30 10:00:31;;;;;;;6.68;2.70;;;;;;;24.84;38.15;100205.03;3554673;40;20089;-50
2021/07/30 10:03:02;;;;;;;8.27;2.53;;;;;;;25.08;38.90;100200.56;3555077;40;20184;-49
2021/07/30 10:05:32;;;;;;;8.35;2.72;;;;;;;25.59;39.57;100201.00;3555162;40;20041;-49
2021/07/30 10:08:05;;;;;;;4.47;2.55;;;;;;;25.53;37.01;100206.53;3554756;40;20057;-47
2021/07/30 10:10:33;;;;;;;5.18;2.30;;;;;;;25.47;36.72;100215.53;3554112;40;20098;-47
2021/07/30 10:13:05;;;;;;;8.38;3.28;;;;;;;25.81;36.29;100208.81;3554011;40;20059;-46
2021/07/30 10:15:35;;;;;;;5.28;2.58;;;;;;;26.53;36.92;100211.59;3553686;40;20053;-45
2021/07/30 10:18:07;;;;;;;5.53;2.42;;;;;;;28.07;32.97;100207.25;3554531;40;20049;-48
2021/07/30 10:20:42;;;;;;;5.03;2.40;;;;;;;30.37;30.36;100211.22;3553700;40;20058;-47
2021/07/30 10:23:18;;;;;;;5.05;2.50;;;;;;;30.87;29.24;100212.34;3554510;40;20359;-47
2021/07/30 10:26:15;;;;;;;4.43;2.55;;;;;;;33.39;25.84;100217.25;3554186;40;20043;-46
2021/07/30 10:28:58;;;;;;;5.07;2.60;;;;;;;33.70;25.48;100201.63;3548241;40;20090;-47
2021/07/30 10:31:49;;;;;;;7.68;2.80;;;;;;;35.11;26.03;100200.78;3554202;40;20109;-46
2021/07/30 10:34:37;;;;;;;8.45;2.60;;;;;;;35.24;24.00;100200.59;3553843;40;20030;-44
2021/07/30 10:37:24;;;;;;;4.15;2.25;;;;;;;36.00;22.45;100201.09;3554150;40;20101;-43
2021/07/30 10:40:32;;;;;;;6.53;2.17;;;;;;;35.94;22.54;100205.97;3554224;40;20057;-43
2021/07/30 10:43:02;;;;;;;4.03;2.22;;;;;;;34.15;24.33;100189.16;3522123;40;20283;-46
2021/07/30 10:45:34;;;;;;;5.10;2.53;;;;;;;32.50;26.17;100178.03;3550358;40;20189;-43
2021/07/30 10:48:15;;;;;;;4.90;2.40;;;;;;;32.39;25.96;100170.00;3555409;40;20054;-45
2021/07/30 10:51:05;;;;;;;3.55;2.20;;;;;;;31.88;28.00;100173.66;3548048;40;20066;-44
2021/07/30 10:53:40;;;;;;;6.15;2.38;;;;;;;33.78;24.77;100171.78;3555211;40;20468;-43
2021/07/30 10:56:27;;;;;;;;;;;;;;;34.02;24.65;100172.53;3555720;40;20052;-46
2021/07/30 10:58:55;;;;;;;;;;;;;;;34.38;23.67;100173.13;3555654;40;19997;-47
2021/07/30 11:01:32;;;;;;;4.20;2.35;;;;;;;31.73;28.03;100165.94;3555264;40;19941;-44
2021/07/30 11:04:03;;;;;;;5.72;2.40;;;;;;;31.39;28.36;100170.97;3554885;40;20096;-47
2021/07/30 11:06:51;;;;;;;5.32;2.83;;;;;;;30.35;29.92;100154.13;3554986;40;20045;-47
2021/07/30 11:09:23;;;;;;;6.22;2.67;;;;;;;29.31;30.75;100156.19;3554847;40;20439;-44
2021/07/30 11:11:55;;;;;;;4.88;2.40;;;;;;;29.09;30.47;100154.00;3555048;40;20038;-45
2021/07/30 11:14:30;;;;;;;6.75;2.95;;;;;;;29.73;30.54;100159.81;3554975;40;20042;-45
2021/07/30 11:16:58;;;;;;;3.58;2.47;;;;;;;30.75;28.88;100165.59;3555390;40;20370;-45
2021/07/30 11:19:26;;;;;;;4.00;2.58;;;;;;;30.98;27.88;100164.03;3555202;40;20062;-44
2021/07/30 11:21:54;;;;;;;7.88;3.03;;;;;;;29.78;30.42;100151.59;3554738;40;20102;-45
2021/07/30 11:24:22;;;;;;;6.40;2.92;;;;;;;31.85;28.45;100163.31;3554974;40;20316;-45
2021/07/30 11:26:54;;;;;;;6.60;2.50;;;;;;;33.21;26.06;100160.28;3554969;40;20046;-44
2021/07/30 11:29:33;;;;;;;8.15;3.10;;;;;;;34.33;24.13;100162.88;3554776;40;20064;-44
2021/07/30 11:32:12;;;;;;;5.32;2.03;;;;;;;34.09;25.98;100159.56;3555026;40;20462;-50
2021/07/30 11:34:45;;;;;;;6.22;2.50;;;;;;;35.89;23.06;100156.72;3554904;40;20506;-46
2021/07/30 11:37:16;;;;;;;7.13;2.35;;;;;;;33.97;23.65;100152.59;3554930;40;20057;-48
2021/07/30 11:39:47;;;;;;;5.45;2.55;;;;;;;32.07;26.32;100151.13;3555044;40;20050;-44